Terminal Aerodrome Forecast
Issued by NWS Twin Cities, MN

Home | Current Version | Previous Version | Text Only | Print | Product List | Glossary Off
Versions: 1 2 3 4 5 6 7 8 9 10 11 12 13 14 15 16 17 18 19 20 21 22 23 24 25 26

000
FTUS43 KMPX 272000 AAA
TAFMSP
TAF AMD
KMSP 272045Z 2721/2824 32007KT P6SM SCT100 BKN150
     FM280100 28008KT P6SM BKN060
     FM281200 27010G16KT P6SM BKN100
     FM281600 28014G20KT P6SM BKN025 OVC040
     FM282100 29016G22KT P6SM SCT030 OVC050=

USA.gov is the U.S. government's official web portal to all federal, state and local government web resources and services.